Time;durP1;ratioP1;P1;durP2;ratioP2;P2;SDS_P1;SDS_P2;PMS_P1;PMS_P2;Temp;Humidity;BMP_temperature;BMP_pressure;BME280_temperature;BME280_humidity;BME280_pressure;Samples;Min_cycle;Max_cycle;Signal;HPM_P1;HPM_P2
2020/12/05 00:00:44;;;;;;;;;;;;;;;4.51;91.98;96645.63;5033405;28;19912;-80
2020/12/05 00:03:09;;;;;;;;;;;;;;;4.48;92.08;96643.22;5038857;28;19944;-80
2020/12/05 00:05:34;;;;;;;;;;;;;;;4.53;91.51;96655.75;5041693;28;20031;-80
2020/12/05 00:07:59;;;;;;;;;;;;;;;4.52;91.55;96661.75;5040693;28;19919;-80
2020/12/05 00:10:26;;;;;;;;;;;;;;;4.35;92.23;96659.94;5039195;28;19917;-80
2020/12/05 00:12:51;;;;;;;;;;;;;;;4.42;92.16;96663.06;5039016;28;19913;-79
2020/12/05 00:15:16;;;;;;;;;;;;;;;4.43;92.30;96670.66;5040350;28;20007;-80
2020/12/05 00:17:42;;;;;;;;;;;;;;;4.35;93.29;96668.41;5033637;28;19928;-81
2020/12/05 00:20:07;;;;;;;;;;;;;;;4.12;94.16;96671.97;5016504;28;19975;-80
2020/12/05 00:22:32;;;;;;;;;;;;;;;4.27;93.30;96669.69;5040174;28;20302;-80
2020/12/05 00:24:58;;;;;;;;;;;;;;;4.26;93.01;96678.19;5038565;28;19917;-80
2020/12/05 00:27:23;;;;;;;;;;;;;;;4.23;93.55;96678.34;5041057;28;19914;-81
2020/12/05 00:29:49;;;;;;;;;;;;;;;4.23;93.44;96678.34;5041406;28;20009;-81
2020/12/05 00:32:14;;;;;;;;;;;;;;;4.15;93.84;96684.59;5039533;28;19913;-80
2020/12/05 00:34:39;;;;;;;;;;;;;;;4.16;93.53;96686.25;5039201;28;20012;-80
2020/12/05 00:37:04;;;;;;;;;;;;;;;4.28;93.24;96684.06;5039801;28;19913;-80
2020/12/05 00:39:30;;;;;;;;;;;;;;;4.38;93.52;96687.88;5040579;28;19912;-81
2020/12/05 00:41:55;;;;;;;;;;;;;;;4.33;92.29;96689.78;5040369;28;19917;-80
2020/12/05 00:44:20;;;;;;;;;;;;;;;4.08;93.49;96695.97;5038387;28;19979;-80
2020/12/05 00:46:46;;;;;;;;;;;;;;;3.93;94.58;96706.78;5039816;28;19917;-81
2020/12/05 00:49:11;;;;;;;;;;;;;;;4.11;94.18;96712.81;5042610;28;19943;-80
2020/12/05 00:51:36;;;;;;;;;;;;;;;4.08;94.01;96703.59;5039358;28;20029;-81
2020/12/05 00:54:02;;;;;;;;;;;;;;;4.02;94.38;96703.84;5036986;28;20050;-80
2020/12/05 00:56:27;;;;;;;;;;;;;;;3.96;94.32;96694.72;5037135;28;19917;-80
2020/12/05 00:58:53;;;;;;;;;;;;;;;4.22;93.61;96686.88;5040337;28;20021;-81
2020/12/05 01:01:18;;;;;;;;;;;;;;;4.28;92.40;96676.41;5032559;28;20395;-80
2020/12/05 01:03:43;;;;;;;;;;;;;;;4.24;93.64;96674.88;5038119;28;20399;-80
2020/12/05 01:06:15;;;;;;;;;;;;;;;4.28;93.35;96671.31;5038288;28;19925;-80
2020/12/05 01:08:40;;;;;;;;;;;;;;;4.64;91.94;96673.13;5039848;28;19916;-81
2020/12/05 01:11:10;;;;;;;;;;;;;;;4.53;91.87;96678.69;5039475;28;20550;-81
2020/12/05 01:13:35;;;;;;;;;;;;;;;4.53;92.37;96678.69;5040141;28;19921;-81
2020/12/05 01:16:01;;;;;;;;;;;;;;;4.46;92.22;96674.78;5041701;28;19932;-82
2020/12/05 01:18:26;;;;;;;;;;;;;;;4.55;93.14;96684.56;5038668;28;19919;-81
2020/12/05 01:20:51;;;;;;;;;;;;;;;4.50;92.62;96686.50;5031395;28;20397;-80
2020/12/05 01:23:16;;;;;;;;;;;;;;;4.45;93.07;96689.25;5040300;28;19948;-81
2020/12/05 01:25:42;;;;;;;;;;;;;;;4.44;92.86;96682.47;5038385;28;19917;-83
2020/12/05 01:28:07;;;;;;;;;;;;;;;4.47;92.61;96697.66;5038537;28;19909;-82
2020/12/05 01:30:32;;;;;;;;;;;;;;;4.54;92.11;96698.19;5038747;28;19925;-82
2020/12/05 01:32:58;;;;;;;;;;;;;;;4.56;92.23;96699.78;5038769;28;20027;-83
2020/12/05 01:35:23;;;;;;;;;;;;;;;4.64;91.59;96698.59;5036900;28;19960;-82
2020/12/05 01:37:48;;;;;;;;;;;;;;;4.65;91.77;96684.94;5036833;28;20010;-83
2020/12/05 01:40:13;;;;;;;;;;;;;;;4.45;93.59;96701.97;5037362;28;20365;-82
2020/12/05 01:42:39;;;;;;;;;;;;;;;4.47;92.19;96710.38;5033560;28;19923;-81
2020/12/05 01:45:05;;;;;;;;;;;;;;;4.38;93.69;96715.91;5039068;28;20325;-82
2020/12/05 01:47:30;;;;;;;;;;;;;;;4.43;92.90;96711.41;5038441;28;19974;-82
2020/12/05 01:49:56;;;;;;;;;;;;;;;4.32;94.68;96714.44;5033522;28;20324;-81
2020/12/05 01:52:22;;;;;;;;;;;;;;;4.31;93.94;96709.38;5041997;28;19976;-83
2020/12/05 01:54:47;;;;;;;;;;;;;;;4.48;93.13;96714.56;5041732;28;19962;-82
2020/12/05 01:57:12;;;;;;;;;;;;;;;4.51;93.04;96718.72;5041865;28;19917;-81
2020/12/05 01:59:38;;;;;;;;;;;;;;;4.38;94.93;96715.91;5042544;28;20469;-82
2020/12/05 02:02:04;;;;;;;;;;;;;;;4.42;94.24;96717.38;5039892;28;20390;-81
2020/12/05 02:04:30;;;;;;;;;;;;;;;4.32;94.78;96723.81;5040459;28;20362;-81
2020/12/05 02:07:15;;;;;;;;;;;;;;;4.29;94.15;96718.81;5041195;28;19919;-81
2020/12/05 02:09:45;;;;;;;;;;;;;;;3.93;96.51;96722.88;5044766;28;20035;-85
2020/12/05 02:12:29;;;;;;;;;;;;;;;4.20;94.81;96727.72;5039303;28;19917;-83
2020/12/05 02:15:04;;;;;;;;;;;;;;;4.20;94.75;96725.16;5037433;28;19924;-81
2020/12/05 02:17:29;;;;;;;;;;;;;;;3.86;97.29;96728.31;5042197;28;19920;-83
2020/12/05 02:19:55;;;;;;;;;;;;;;;4.00;96.31;96732.81;5042019;28;20391;-81
2020/12/05 02:22:31;;;;;;;;;;;;;;;4.17;96.36;96726.13;5041809;28;19913;-81
2020/12/05 02:24:57;;;;;;;;;;;;;;;4.28;94.79;96722.28;5039790;28;19920;-82
2020/12/05 02:27:23;;;;;;;;;;;;;;;4.27;94.72;96721.44;5042977;28;20010;-82
2020/12/05 02:29:48;;;;;;;;;;;;;;;4.59;93.24;96722.56;5041757;28;19927;-82
2020/12/05 02:32:13;;;;;;;;;;;;;;;4.58;92.85;96725.19;5041561;28;19913;-81
2020/12/05 02:34:39;;;;;;;;;;;;;;;4.36;94.74;96725.31;5039626;28;19927;-82
2020/12/05 02:37:05;;;;;;;;;;;;;;;4.29;96.21;96734.94;5043829;28;20011;-83
2020/12/05 02:39:30;;;;;;;;;;;;;;;4.69;93.42;96717.06;5044679;28;19927;-82
2020/12/05 02:41:56;;;;;;;;;;;;;;;4.53;94.56;96722.84;5019396;28;20003;-82
2020/12/05 02:44:21;;;;;;;;;;;;;;;4.78;92.86;96717.47;5040464;28;20038;-82
2020/12/05 02:46:47;;;;;;;;;;;;;;;4.66;91.99;96719.75;5042430;28;19924;-82
2020/12/05 02:49:12;;;;;;;;;;;;;;;4.63;93.54;96714.78;5040165;28;20028;-82
2020/12/05 02:51:40;;;;;;;;;;;;;;;4.51;94.76;96714.44;5038887;28;19920;-81
2020/12/05 02:54:06;;;;;;;;;;;;;;;4.55;93.14;96715.97;5041524;28;19966;-82
2020/12/05 02:56:31;;;;;;;;;;;;;;;4.63;93.49;96722.44;5040908;28;20349;-82
2020/12/05 02:58:56;;;;;;;;;;;;;;;4.43;94.44;96724.16;5044058;28;19923;-82
2020/12/05 03:01:21;;;;;;;;;;;;;;;4.52;93.75;96728.84;5040887;28;19913;-82
2020/12/05 03:03:47;;;;;;;;;;;;;;;4.61;93.16;96720.78;5043392;28;19931;-82
2020/12/05 03:06:12;;;;;;;;;;;;;;;4.54;93.61;96721.97;5044352;28;19924;-82
2020/12/05 03:08:37;;;;;;;;;;;;;;;4.25;94.31;96730.06;5042740;28;20413;-82
2020/12/05 03:11:03;;;;;;;;;;;;;;;4.34;94.33;96737.31;5041335;28;19968;-82
2020/12/05 03:13:28;;;;;;;;;;;;;;;4.52;93.91;96736.50;5043819;28;19913;-82
2020/12/05 03:15:53;;;;;;;;;;;;;;;4.53;94.49;96742.41;5018919;28;19931;-82
2020/12/05 03:18:19;;;;;;;;;;;;;;;4.57;93.67;96743.94;5039084;28;20290;-82
2020/12/05 03:20:44;;;;;;;;;;;;;;;4.31;95.27;96751.00;5042042;28;19952;-82
2020/12/05 03:23:09;;;;;;;;;;;;;;;4.34;94.54;96757.69;5043221;28;19945;-82
2020/12/05 03:25:35;;;;;;;;;;;;;;;4.31;95.20;96748.47;5039226;28;19924;-82
2020/12/05 03:28:00;;;;;;;;;;;;;;;4.19;97.01;96754.88;5042906;28;19960;-82
2020/12/05 03:30:25;;;;;;;;;;;;;;;4.28;95.02;96763.84;5042697;28;19920;-82
2020/12/05 03:32:51;;;;;;;;;;;;;;;4.25;96.74;96763.19;5039007;28;19924;-82
2020/12/05 03:35:16;;;;;;;;;;;;;;;4.27;95.63;96758.84;5041500;28;20378;-82
2020/12/05 03:37:41;;;;;;;;;;;;;;;4.18;95.54;96758.34;5040222;28;19912;-82
2020/12/05 03:40:07;;;;;;;;;;;;;;;4.19;95.99;96759.16;5018418;28;19913;-81
2020/12/05 03:42:32;;;;;;;;;;;;;;;4.23;95.56;96767.50;5038824;28;19932;-81
2020/12/05 03:44:58;;;;;;;;;;;;;;;4.29;96.57;96767.22;5041036;28;19917;-81
2020/12/05 03:47:23;;;;;;;;;;;;;;;4.35;96.15;96764.41;5041464;28;20367;-81
2020/12/05 03:49:48;;;;;;;;;;;;;;;4.31;94.76;96763.75;5039948;28;19921;-81
2020/12/05 03:52:15;;;;;;;;;;;;;;;4.35;94.66;96760.16;5041417;28;19923;-81
2020/12/05 03:54:41;;;;;;;;;;;;;;;4.19;97.43;96754.88;5019815;28;19913;-82
2020/12/05 03:57:06;;;;;;;;;;;;;;;4.32;95.58;96759.47;5040525;28;19920;-81
2020/12/05 03:59:31;;;;;;;;;;;;;;;4.28;95.76;96765.59;5043478;28;19967;-81
2020/12/05 04:01:57;;;;;;;;;;;;;;;4.27;96.81;96771.59;5042520;28;19916;-81
2020/12/05 04:04:22;;;;;;;;;;;;;;;4.34;95.46;96765.34;5042733;28;19921;-81
2020/12/05 04:06:47;;;;;;;;;;;;;;;4.41;93.88;96779.47;5049158;28;19940;-81
2020/12/05 04:09:13;;;;;;;;;;;;;;;4.45;95.13;96781.00;5017861;28;20374;-81
2020/12/05 04:11:40;;;;;;;;;;;;;;;4.14;95.37;96791.66;5039053;28;20389;-81
2020/12/05 04:14:05;;;;;;;;;;;;;;;4.24;95.86;96792.06;5041984;28;19950;-81
2020/12/05 04:16:31;;;;;;;;;;;;;;;4.41;94.22;96794.75;5036827;28;19917;-81
2020/12/05 04:18:56;;;;;;;;;;;;;;;4.40;94.36;96782.88;5041179;28;19924;-81
2020/12/05 04:21:21;;;;;;;;;;;;;;;4.51;94.41;96780.69;5041303;28;20418;-81
2020/12/05 04:23:47;;;;;;;;;;;;;;;4.45;94.90;96796.28;5041454;28;19944;-81
2020/12/05 04:26:12;;;;;;;;;;;;;;;4.65;94.22;96792.84;5041392;28;19921;-82
2020/12/05 04:28:37;;;;;;;;;;;;;;;4.52;93.49;96790.03;5040130;28;20392;-81
2020/12/05 04:31:03;;;;;;;;;;;;;;;4.59;93.04;96788.84;5043847;28;19917;-81
2020/12/05 04:33:28;;;;;;;;;;;;;;;4.63;93.11;96788.72;5041079;28;19917;-81
2020/12/05 04:35:54;;;;;;;;;;;;;;;4.45;94.03;96792.88;5042030;28;19944;-81
2020/12/05 04:38:19;;;;;;;;;;;;;;;4.48;95.24;96805.50;5041796;28;20374;-81
2020/12/05 04:40:44;;;;;;;;;;;;;;;4.09;96.26;96804.56;5040403;28;19913;-81
2020/12/05 04:43:10;;;;;;;;;;;;;;;4.04;97.40;96809.03;5042991;28;19917;-81
2020/12/05 04:45:35;;;;;;;;;;;;;;;4.11;95.72;96818.06;5018535;28;19924;-81
2020/12/05 04:48:01;;;;;;;;;;;;;;;4.12;95.37;96819.72;5041495;28;19913;-81
2020/12/05 04:50:26;;;;;;;;;;;;;;;4.15;95.60;96823.84;5041561;28;19921;-81
2020/12/05 04:52:53;;;;;;;;;;;;;;;4.15;95.96;96829.81;5039755;28;20200;-81
2020/12/05 04:55:22;;;;;;;;;;;;;;;4.08;95.67;96832.63;5040922;28;20921;-81
2020/12/05 04:57:49;;;;;;;;;;;;;;;4.24;94.63;96843.03;5040059;28;20457;-81
2020/12/05 05:00:16;;;;;;;;;;;;;;;4.16;95.44;96845.91;5038457;28;19959;-81
2020/12/05 05:02:42;;;;;;;;;;;;;;;4.29;94.31;96847.06;5037828;28;19913;-81
2020/12/05 05:05:08;;;;;;;;;;;;;;;4.21;94.57;96850.81;5039430;28;19917;-81
2020/12/05 05:07:34;;;;;;;;;;;;;;;4.29;93.95;96852.16;5017168;28;19940;-81
2020/12/05 05:10:08;;;;;;;;;;;;;;;4.22;94.11;96842.25;5041721;28;19921;-81
2020/12/05 05:12:35;;;;;;;;;;;;;;;3.94;96.85;96838.28;5035925;28;19921;-81
2020/12/05 05:15:01;;;;;;;;;;;;;;;4.07;95.20;96836.91;5041934;28;19924;-81
2020/12/05 05:17:26;;;;;;;;;;;;;;;4.14;95.32;96828.13;5040971;28;19918;-81
2020/12/05 05:19:52;;;;;;;;;;;;;;;4.21;94.79;96833.78;5041934;28;19940;-81
2020/12/05 05:22:21;;;;;;;;;;;;;;;4.14;94.51;96834.94;5040836;28;20283;-81
2020/12/05 05:24:59;;;;;;;;;;;;;;;4.17;93.98;96838.22;5039274;28;19948;-81
2020/12/05 05:27:25;;;;;;;;;;;;;;;4.01;95.71;96846.53;5040227;28;19913;-81
2020/12/05 05:29:50;;;;;;;;;;;;;;;3.87;96.37;96854.72;5041021;28;19978;-81
2020/12/05 05:32:24;;;;;;;;;;;;;;;3.77;96.30;96849.16;5039671;28;19917;-81
2020/12/05 05:34:50;;;;;;;;;;;;;;;3.78;96.43;96854.16;5039552;28;19924;-81
2020/12/05 05:37:19;;;;;;;;;;;;;;;3.65;97.97;96855.56;5040002;28;19921;-81
2020/12/05 05:39:49;;;;;;;;;;;;;;;3.76;96.03;96858.53;5040270;28;19970;-81
2020/12/05 05:42:30;;;;;;;;;;;;;;;3.98;95.03;96865.31;5039843;28;19924;-81
2020/12/05 05:45:14;;;;;;;;;;;;;;;3.74;95.86;96870.47;5039385;28;19913;-81
2020/12/05 05:47:40;;;;;;;;;;;;;;;3.77;96.48;96865.25;5032706;28;19920;-81
2020/12/05 05:50:22;;;;;;;;;;;;;;;3.58;96.91;96864.34;5039763;28;19917;-81
2020/12/05 05:52:53;;;;;;;;;;;;;;;3.73;96.33;96866.25;5038574;28;19913;-81
2020/12/05 05:55:18;;;;;;;;;;;;;;;3.95;95.68;96865.44;5021856;28;20341;-81
2020/12/05 05:57:43;;;;;;;;;;;;;;;3.92;95.28;96868.09;5039041;28;19917;-81
2020/12/05 06:00:09;;;;;;;;;;;;;;;3.73;96.93;96866.25;5038500;28;19943;-81
2020/12/05 06:02:34;;;;;;;;;;;;;;;3.75;95.98;96872.13;5016096;28;19924;-81
2020/12/05 06:04:59;;;;;;;;;;;;;;;3.80;97.00;96868.56;5038729;28;19923;-81
2020/12/05 06:07:25;;;;;;;;;;;;;;;3.82;95.58;96871.91;5038878;28;19917;-82
2020/12/05 06:09:51;;;;;;;;;;;;;;;3.77;95.32;96880.53;5040465;28;19921;-81
2020/12/05 06:12:18;;;;;;;;;;;;;;;3.66;96.76;96885.22;5040426;28;19962;-81
2020/12/05 06:14:44;;;;;;;;;;;;;;;3.72;96.20;96897.72;5035115;28;19917;-81
2020/12/05 06:17:10;;;;;;;;;;;;;;;3.77;95.53;96903.44;5040197;28;19917;-81
2020/12/05 06:19:35;;;;;;;;;;;;;;;3.66;96.77;96909.84;5039811;28;20393;-80
2020/12/05 06:22:00;;;;;;;;;;;;;;;3.58;96.42;96915.22;5038079;28;20280;-81
2020/12/05 06:24:34;;;;;;;;;;;;;;;3.69;96.29;96922.44;5039593;28;20347;-81
2020/12/05 06:27:00;;;;;;;;;;;;;;;3.60;96.78;96927.88;5039286;28;19939;-81
2020/12/05 06:29:26;;;;;;;;;;;;;;;3.52;96.91;96941.72;5039929;28;20368;-81
2020/12/05 06:31:51;;;;;;;;;;;;;;;3.35;97.84;96949.97;5038078;28;19994;-81
2020/12/05 06:34:40;;;;;;;;;;;;;;;3.40;97.78;96969.31;5039814;28;20492;-81
2020/12/05 06:37:06;;;;;;;;;;;;;;;3.50;97.54;96984.19;5039393;28;19917;-81
2020/12/05 06:39:31;;;;;;;;;;;;;;;3.49;97.33;96992.75;5041671;28;19927;-81
2020/12/05 06:41:56;;;;;;;;;;;;;;;3.27;98.24;96992.66;5047258;28;19916;-81
2020/12/05 06:44:34;;;;;;;;;;;;;;;3.37;98.27;97002.50;5044266;28;19975;-81
2020/12/05 06:47:01;;;;;;;;;;;;;;;3.51;97.65;96992.66;5047956;28;20003;-81
2020/12/05 06:49:38;;;;;;;;;;;;;;;3.51;98.04;97001.16;5042209;28;19963;-81
2020/12/05 06:52:25;;;;;;;;;;;;;;;3.25;98.67;97012.22;5044052;28;19917;-81
2020/12/05 06:54:54;;;;;;;;;;;;;;;3.29;98.34;97018.88;5044126;28;20333;-81
2020/12/05 06:57:20;;;;;;;;;;;;;;;3.33;98.42;97022.13;5040659;28;20363;-81
2020/12/05 06:59:45;;;;;;;;;;;;;;;3.17;98.94;97026.94;5043391;28;19913;-81
2020/12/05 07:02:31;;;;;;;;;;;;;;;3.20;99.10;97031.91;5034082;28;19917;-80
2020/12/05 07:05:25;;;;;;;;;;;;;;;3.37;98.25;97035.59;5040009;28;19921;-81
2020/12/05 07:07:54;;;;;;;;;;;;;;;3.43;97.47;97040.47;5035863;28;20275;-81
2020/12/05 07:10:20;;;;;;;;;;;;;;;3.38;97.96;97039.81;5046269;28;20437;-82
2020/12/05 07:12:46;;;;;;;;;;;;;;;3.50;97.26;97034.28;5046073;28;19913;-81
2020/12/05 07:15:31;;;;;;;;;;;;;;;3.58;96.55;97047.56;5043866;28;19913;-81
2020/12/05 07:17:58;;;;;;;;;;;;;;;3.53;96.99;97045.16;5041187;28;19923;-82
2020/12/05 07:20:23;;;;;;;;;;;;;;;3.42;98.02;97048.97;5043550;28;19917;-82
2020/12/05 07:22:50;;;;;;;;;;;;;;;3.58;96.53;97051.81;5043146;28;19917;-82
2020/12/05 07:25:16;;;;;;;;;;;;;;;3.60;97.26;97045.78;5044625;28;19917;-82
2020/12/05 07:27:42;;;;;;;;;;;;;;;3.45;97.21;97051.44;5045575;28;19991;-82
2020/12/05 07:30:07;;;;;;;;;;;;;;;3.62;96.94;97054.19;5043592;28;19921;-82
2020/12/05 07:32:33;;;;;;;;;;;;;;;3.52;97.12;97055.41;5021971;28;19917;-82
2020/12/05 07:34:59;;;;;;;;;;;;;;;3.44;97.45;97065.03;5043870;28;19925;-82
2020/12/05 07:37:28;;;;;;;;;;;;;;;3.43;97.58;97071.81;5021443;28;19912;-82
2020/12/05 07:39:53;;;;;;;;;;;;;;;3.24;98.33;97084.34;5043123;28;19943;-82
2020/12/05 07:42:19;;;;;;;;;;;;;;;3.13;99.30;97086.41;5025877;28;19976;-82
2020/12/05 07:44:44;;;;;;;;;;;;;;;3.10;99.71;97087.34;5042464;28;19967;-81
2020/12/05 07:47:19;;;;;;;;;;;;;;;3.08;99.86;97098.44;5039896;28;19913;-81
2020/12/05 07:49:54;;;;;;;;;;;;;;;3.08;100.00;97093.34;5042497;28;19924;-81
2020/12/05 07:52:20;;;;;;;;;;;;;;;3.10;100.00;97101.75;5017741;28;19913;-81
2020/12/05 07:54:49;;;;;;;;;;;;;;;3.16;99.36;97111.75;5042098;28;19913;-81
2020/12/05 07:57:15;;;;;;;;;;;;;;;3.14;99.64;97118.59;5039656;28;20409;-82
2020/12/05 07:59:40;;;;;;;;;;;;;;;3.13;99.95;97127.09;5023522;28;19912;-83
2020/12/05 08:02:27;;;;;;;;;;;;;;;3.06;100.00;97131.56;5041604;28;19921;-82
2020/12/05 08:04:52;;;;;;;;;;;;;;;3.09;99.86;97143.34;5031330;28;20325;-81
2020/12/05 08:07:18;;;;;;;;;;;;;;;3.13;100.00;97153.38;5044761;28;19917;-81
2020/12/05 08:09:43;;;;;;;;;;;;;;;3.20;99.42;97159.09;5041699;28;19917;-81
2020/12/05 08:12:14;;;;;;;;;;;;;;;3.30;99.00;97163.00;5040078;28;19917;-81
2020/12/05 08:14:43;;;;;;;;;;;;;;;3.29;99.65;97157.97;5039897;28;20009;-81
2020/12/05 08:17:08;;;;;;;;;;;;;;;3.25;99.19;97159.78;5039776;28;19924;-81
2020/12/05 08:19:33;;;;;;;;;;;;;;;3.27;99.04;97157.19;5039405;28;20055;-82
2020/12/05 08:22:08;;;;;;;;;;;;;;;3.19;99.18;97156.59;5040311;28;19944;-81
2020/12/05 08:24:33;;;;;;;;;;;;;;;3.26;99.15;97158.91;5038616;28;19913;-81
2020/12/05 08:26:59;;;;;;;;;;;;;;;3.34;98.90;97151.84;5041583;28;19927;-81
2020/12/05 08:29:24;;;;;;;;;;;;;;;3.40;97.97;97144.88;5038003;28;19924;-79
2020/12/05 08:31:50;;;;;;;;;;;;;;;3.32;98.32;97151.06;5036411;28;19920;-81
2020/12/05 08:34:27;;;;;;;;;;;;;;;3.38;98.41;97161.94;5034123;28;19921;-81
2020/12/05 08:36:52;;;;;;;;;;;;;;;3.54;97.67;97168.16;5038112;28;20431;-81
2020/12/05 08:39:17;;;;;;;;;;;;;;;3.67;97.94;97182.16;5014843;28;19921;-81
2020/12/05 08:41:47;;;;;;;;;;;;;;;3.70;97.42;97183.75;5015703;28;19927;-81
2020/12/05 08:44:16;;;;;;;;;;;;;;;3.56;98.20;97192.69;5037935;28;19921;-81
2020/12/05 08:46:41;;;;;;;;;;;;;;;3.68;97.36;97211.81;5038672;28;19917;-81
2020/12/05 08:49:25;;;;;;;;;;;;;;;3.54;97.55;97219.06;5038539;28;19924;-81
2020/12/05 08:51:51;;;;;;;;;;;;;;;3.42;97.69;97224.53;5038334;28;19917;-81
2020/12/05 08:54:17;;;;;;;;;;;;;;;3.59;97.26;97237.56;5041276;28;19975;-81
2020/12/05 08:56:42;;;;;;;;;;;;;;;3.49;97.56;97241.28;5040587;28;19914;-81
2020/12/05 08:59:07;;;;;;;;;;;;;;;3.56;97.58;97253.78;5042061;28;20365;-81
2020/12/05 09:01:36;;;;;;;;;;;;;;;3.69;96.35;97256.72;5040839;28;20032;-81
2020/12/05 09:04:01;;;;;;;;;;;;;;;3.69;97.02;97266.09;5042402;28;19917;-80
2020/12/05 11:26:40;;;;;;;;;;;;;;;4.33;91.87;97329.34;5297692;23;20004;-92
2020/12/05 11:29:05;;;;;;;;;;;;;;;4.42;92.13;97339.22;4898530;29;19931;-93
2020/12/05 11:31:31;;;;;;;;;;;;;;;4.38;90.97;97341.06;4904948;29;19923;-94
2020/12/05 11:33:59;;;;;;;;;;;;;;;4.38;90.67;97345.34;4901031;29;20009;-90
2020/12/05 11:36:25;;;;;;;;;;;;;;;4.53;91.09;97357.53;4914519;29;19966;-93
2020/12/05 11:38:53;;;;;;;;;;;;;;;4.63;91.11;97354.69;4902146;29;19981;-95
2020/12/05 11:41:19;;;;;;;;;;;;;;;4.80;90.81;97349.84;4891397;29;20405;-92
2020/12/05 11:43:44;;;;;;;;;;;;;;;4.87;90.60;97347.91;4893098;29;19923;-95
2020/12/05 11:46:11;;;;;;;;;;;;;;;4.65;90.50;97352.91;4905625;29;19923;-95
2020/12/05 11:48:37;;;;;;;;;;;;;;;4.90;90.48;97360.53;4978879;23;19930;-94
2020/12/05 11:51:02;;;;;;;;;;;;;;;4.86;90.36;97366.63;4955468;28;19952;-94
2020/12/05 11:53:27;;;;;;;;;;;;;;;4.64;88.85;97366.56;4957033;28;19933;-95
2020/12/05 11:55:53;;;;;;;;;;;;;;;4.75;90.69;97378.03;4959250;28;19925;-93
2020/12/05 11:58:18;;;;;;;;;;;;;;;4.61;89.41;97378.53;4955991;28;19961;-93
2020/12/05 12:00:44;;;;;;;;;;;;;;;4.52;91.13;97376.28;4957288;28;19976;-94
2020/12/05 12:03:09;;;;;;;;;;;;;;;4.71;90.85;97379.03;4956116;28;20731;-94
2020/12/05 12:05:34;;;;;;;;;;;;;;;4.74;90.11;97398.50;4953357;28;20405;-93
2020/12/05 12:08:00;;;;;;;;;;;;;;;4.76;89.57;97404.38;4953786;28;20004;-95
2020/12/05 12:13:34;;;;;;;;;;;;;;;4.73;90.12;97423.16;5028596;23;19940;-95
2020/12/05 12:15:59;;;;;;;;;;;;;;;4.68;90.22;97429.31;4967515;28;19926;-94
2020/12/05 12:18:25;;;;;;;;;;;;;;;4.64;90.05;97417.56;4966240;28;19921;-94
2020/12/05 12:20:51;;;;;;;;;;;;;;;4.61;89.09;97429.50;4966800;28;20638;-94
2020/12/05 12:23:17;;;;;;;;;;;;;;;4.55;90.35;97434.81;4964149;28;19921;-93
2020/12/05 12:25:42;;;;;;;;;;;;;;;4.74;90.19;97434.19;4966430;28;20366;-94
2020/12/05 12:28:07;;;;;;;;;;;;;;;4.59;89.03;97431.28;4971662;28;20368;-94
2020/12/05 12:30:33;;;;;;;;;;;;;;;4.57;89.00;97433.03;4972912;28;19931;-94
2020/12/05 12:45:47;;;;;;;;;;;;;;;4.83;90.23;97428.78;4949456;28;19953;-92
2020/12/05 12:50:38;;;;;;;;;;;;;;;4.74;90.20;97417.16;4944803;28;19918;-91
2020/12/05 12:53:03;;;;;;;;;;;;;;;4.80;90.45;97413.59;4960074;28;19929;-92
2020/12/05 12:55:29;;;;;;;;;;;;;;;4.80;87.37;97408.50;4959760;28;20317;-91
2020/12/05 12:57:59;;;;;;;;;;;;;;;4.62;89.56;97409.94;4961613;28;20009;-92
2020/12/05 13:00:24;;;;;;;;;;;;;;;4.73;89.11;97407.03;4961825;28;19921;-92
2020/12/05 13:05:42;;;;;;;;;;;;;;;4.91;88.58;97415.78;5032137;23;19929;-94
2020/12/05 13:08:23;;;;;;;;;;;;;;;4.78;88.30;97423.00;4969761;28;19926;-92
2020/12/05 13:10:49;;;;;;;;;;;;;;;4.71;87.97;97412.19;4973208;28;19925;-93
2020/12/05 13:13:21;;;;;;;;;;;;;;;5.05;86.79;97417.84;4968328;28;19928;-93
2020/12/05 13:15:46;;;;;;;;;;;;;;;5.22;87.99;97423.16;4969048;28;19932;-93
2020/12/05 13:18:12;;;;;;;;;;;;;;;5.04;86.02;97427.22;4974319;28;19921;-92
2020/12/05 13:20:38;;;;;;;;;;;;;;;4.79;87.79;97437.44;4970012;28;19922;-93
2020/12/05 13:23:05;;;;;;;;;;;;;;;4.92;87.99;97431.00;4971771;28;19965;-93
2020/12/05 13:25:34;;;;;;;;;;;;;;;4.96;87.57;97435.13;4966440;28;19930;-91
2020/12/05 13:28:02;;;;;;;;;;;;;;;4.97;88.42;97441.91;4967466;28;20328;-92
2020/12/05 13:30:30;;;;;;;;;;;;;;;5.09;89.00;97439.81;4967396;28;19925;-92
2020/12/05 13:33:07;;;;;;;;;;;;;;;5.00;86.61;97444.34;4977658;28;19925;-93
2020/12/05 13:35:53;;;;;;;;;;;;;;;5.08;88.72;97453.44;4979984;28;19936;-93
2020/12/05 13:38:21;;;;;;;;;;;;;;;4.94;86.53;97441.16;4993152;28;21159;-93
2020/12/05 13:40:48;;;;;;;;;;;;;;;4.80;86.27;97446.75;4966679;28;19925;-93
2020/12/05 13:43:13;;;;;;;;;;;;;;;4.77;86.06;97451.97;4979691;28;20331;-92
2020/12/05 13:45:40;;;;;;;;;;;;;;;4.81;87.93;97453.50;4971245;28;19921;-96
2020/12/05 13:48:05;;;;;;;;;;;;;;;4.74;86.90;97449.50;4974545;28;19956;-94
2020/12/05 13:50:31;;;;;;;;;;;;;;;4.69;86.69;97436.91;4972707;28;19973;-93
2020/12/05 13:52:56;;;;;;;;;;;;;;;4.55;88.22;97444.19;4971691;28;19929;-96
2020/12/05 13:55:21;;;;;;;;;;;;;;;4.67;88.86;97448.03;4971719;28;19928;-95
2020/12/05 13:57:52;;;;;;;;;;;;;;;4.73;86.23;97455.50;4979500;28;19932;-96
2020/12/05 14:00:19;;;;;;;;;;;;;;;4.71;87.18;97439.41;5014866;28;20370;-96
2020/12/05 14:02:44;;;;;;;;;;;;;;;4.71;86.14;97454.69;4975399;28;19925;-96
2020/12/05 14:05:09;;;;;;;;;;;;;;;4.71;87.09;97444.50;4977158;28;19925;-94
2020/12/05 14:07:35;;;;;;;;;;;;;;;4.71;86.49;97447.06;4971841;28;19928;-96
2020/12/05 14:10:00;;;;;;;;;;;;;;;4.68;88.68;97457.38;4976258;28;20039;-95
2020/12/05 14:12:26;;;;;;;;;;;;;;;4.68;87.51;97470.13;4973111;28;19948;-96
2020/12/05 14:14:52;;;;;;;;;;;;;;;4.84;89.29;97470.44;4976105;28;19922;-95
2020/12/05 14:17:17;;;;;;;;;;;;;;;4.88;87.60;97477.94;4972818;28;19968;-95
2020/12/05 14:19:42;;;;;;;;;;;;;;;4.77;88.64;97485.13;4972425;28;19924;-93
2020/12/05 14:22:08;;;;;;;;;;;;;;;4.62;88.47;97481.34;4967446;28;19926;-94
2020/12/05 14:24:33;;;;;;;;;;;;;;;4.66;88.94;97466.78;4969986;28;19984;-94
2020/12/05 14:26:59;;;;;;;;;;;;;;;4.56;88.03;97472.19;4979185;28;19926;-96
2020/12/05 14:29:48;;;;;;;;;;;;;;;4.67;88.43;97474.34;4971948;28;19932;-96
2020/12/05 14:32:14;;;;;;;;;;;;;;;4.38;89.30;97480.41;4986769;28;19927;-95
2020/12/05 14:34:39;;;;;;;;;;;;;;;4.55;89.25;97490.88;4973270;28;19922;-94
2020/12/05 14:37:04;;;;;;;;;;;;;;;4.54;88.55;97506.25;4973560;28;19931;-93
2020/12/05 14:39:29;;;;;;;;;;;;;;;4.43;86.70;97501.50;4973370;28;19932;-95
2020/12/05 14:41:55;;;;;;;;;;;;;;;4.53;86.64;97500.31;4967432;28;19928;-93
2020/12/05 14:44:20;;;;;;;;;;;;;;;4.58;87.92;97516.31;4972135;28;19984;-94
2020/12/05 14:46:46;;;;;;;;;;;;;;;4.64;87.63;97520.38;4971500;28;19922;-94
2020/12/05 14:49:14;;;;;;;;;;;;;;;4.69;86.81;97521.03;4970468;28;19948;-95
2020/12/05 14:51:42;;;;;;;;;;;;;;;4.81;86.70;97540.22;4971857;28;20004;-95
2020/12/05 14:54:08;;;;;;;;;;;;;;;4.57;87.48;97539.28;4983048;28;19928;-94
2020/12/05 14:56:39;;;;;;;;;;;;;;;4.18;89.57;97532.81;4971313;28;19922;-96
2020/12/05 14:59:05;;;;;;;;;;;;;;;4.37;88.87;97534.81;4982590;28;19921;-95
2020/12/05 15:01:30;;;;;;;;;;;;;;;4.07;88.98;97537.41;4975136;28;19922;-95
2020/12/05 15:03:56;;;;;;;;;;;;;;;3.98;88.69;97540.22;4975379;28;19929;-96
2020/12/05 15:06:21;;;;;;;;;;;;;;;3.80;89.77;97541.56;4975347;28;20392;-93
2020/12/05 15:08:46;;;;;;;;;;;;;;;4.13;89.66;97534.69;4999224;23;19929;-96
2020/12/05 15:11:12;;;;;;;;;;;;;;;4.29;88.61;97534.19;4992345;23;19930;-94
2020/12/05 15:13:37;;;;;;;;;;;;;;;4.14;87.82;97530.41;4952928;28;19929;-95
2020/12/05 15:16:03;;;;;;;;;;;;;;;3.97;88.59;97520.72;4959514;28;19922;-96
2020/12/05 15:18:28;;;;;;;;;;;;;;;3.94;88.10;97524.16;4956183;28;20393;-94
2020/12/05 15:20:55;;;;;;;;;;;;;;;3.77;89.59;97519.56;4953064;28;19922;-96
2020/12/05 15:23:21;;;;;;;;;;;;;;;3.46;90.21;97527.22;4962706;28;20394;-96
2020/12/05 15:25:46;;;;;;;;;;;;;;;3.48;90.83;97522.94;4958054;28;19922;-95
2020/12/05 15:28:12;;;;;;;;;;;;;;;3.28;90.69;97523.47;4955005;28;20289;-95
2020/12/05 15:30:37;;;;;;;;;;;;;;;3.17;91.52;97517.84;4952129;28;19924;-96
2020/12/05 15:33:02;;;;;;;;;;;;;;;3.21;91.43;97518.59;4949845;28;19961;-96
2020/12/05 15:35:28;;;;;;;;;;;;;;;3.23;91.67;97520.22;4947752;28;19926;-96
2020/12/05 15:37:53;;;;;;;;;;;;;;;3.20;91.87;97509.31;4948694;28;19922;-96